Time;durP1;ratioP1;P1;durP2;ratioP2;P2;SDS_P1;SDS_P2;PMS_P1;PMS_P2;Temp;Humidity;BMP_temperature;BMP_pressure;BME280_temperature;BME280_humidity;BME280_pressure;Samples;Min_cycle;Max_cycle;Signal;HPM_P1;HPM_P2
2023/08/03 00:01:43;;;;;;;;;;;;;;;;;;4985172;28;19956;-59
2023/08/03 00:04:09;;;;;;;;;;;;;;;;;;4987031;28;19929;-59
2023/08/03 00:06:35;;;;;;;;;;;;;;;;;;4973257;28;19921;-59
2023/08/03 00:09:01;;;;;;;;;;;;;;;;;;4986341;28;20487;-59
2023/08/03 00:11:27;;;;;;;;;;;;;;;;;;4985881;28;20212;-59
2023/08/03 00:13:53;;;;;;;;;;;;;;;;;;4986378;28;20434;-60
2023/08/03 00:16:19;;;;;;;;;;;;;;;;;;4985676;28;19933;-59
2023/08/03 00:18:45;;;;;;;;;;;;;;;;;;4985888;28;20057;-59
2023/08/03 00:21:11;;;;;;;;;;;;;;;;;;4986784;28;20619;-59
2023/08/03 00:23:37;;;;;;;;;;;;;;;;;;4985307;28;19957;-60
2023/08/03 00:26:03;;;;;;;;;;;;;;;;;;4984900;28;20205;-59
2023/08/03 00:28:28;;;;;;;;;;;;;;;;;;4985682;28;20680;-59
2023/08/03 00:30:54;;;;;;;;;;;;;;;;;;4986282;28;19926;-59
2023/08/03 00:33:20;;;;;;;;;;;;;;;;;;4985917;28;19956;-59
2023/08/03 00:35:46;;;;;;;;;;;;;;;;;;4985406;28;19949;-60
2023/08/03 00:38:12;;;;;;;;;;;;;;;;;;4985921;28;19976;-61
2023/08/03 00:40:38;;;;;;;;;;;;;;;;;;4972226;28;20384;-60
2023/08/03 00:43:04;;;;;;;;;;;;;;;;;;4986180;28;19932;-60
2023/08/03 00:45:30;;;;;;;;;;;;;;;;;;4985687;28;19925;-60
2023/08/03 00:47:56;;;;;;;;;;;;;;;;;;4984692;28;19932;-60
2023/08/03 00:50:22;;;;;;;;;;;;;;;;;;4985872;28;19936;-60
2023/08/03 00:52:48;;;;;;;;;;;;;;;;;;4986031;28;19926;-60
2023/08/03 00:55:14;;;;;;;;;;;;;;;;;;4984849;28;19932;-60
2023/08/03 00:57:40;;;;;;;;;;;;;;;;;;4984986;28;19926;-61
2023/08/03 01:00:06;;;;;;;;;;;;;;;;;;4985413;28;19925;-60
2023/08/03 01:02:32;;;;;;;;;;;;;;;;;;5051196;23;19927;-67
2023/08/03 01:04:58;;;;;;;;;;;;;;;;;;4985883;28;20379;-68
2023/08/03 01:07:24;;;;;;;;;;;;;;;;;;4983980;28;19929;-68
2023/08/03 01:09:50;;;;;;;;;;;;;;;;;;5003170;28;19956;-68
2023/08/03 01:12:16;;;;;;;;;;;;;;;;;;5000473;28;19947;-68
2023/08/03 01:14:43;;;;;;;;;;;;;;;;;;5002536;28;19933;-68
2023/08/03 01:17:09;;;;;;;;;;;;;;;;;;5002116;28;20389;-68
2023/08/03 01:19:35;;;;;;;;;;;;;;;;;;5002830;28;19925;-68
2023/08/03 01:22:01;;;;;;;;;;;;;;;;;;5003224;28;19926;-69
2023/08/03 01:24:26;;;;;;;;;;;;;;;;;;5003761;28;19956;-68
2023/08/03 01:26:52;;;;;;;;;;;;;;;;;;4986079;28;19966;-65
2023/08/03 01:29:18;;;;;;;;;;;;;;;;;;5002518;28;20295;-68
2023/08/03 01:31:44;;;;;;;;;;;;;;;;;;4988865;28;19976;-68
2023/08/03 01:34:13;;;;;;;;;;;;;;;;;;5004399;28;19968;-69
2023/08/03 01:36:39;;;;;;;;;;;;;;;;;;5004208;28;20410;-70
2023/08/03 01:39:05;;;;;;;;;;;;;;;;;;5004186;28;19968;-69
2023/08/03 01:41:31;;;;;;;;;;;;;;;;;;5002792;28;19926;-69
2023/08/03 01:43:57;;;;;;;;;;;;;;;;;;5004068;28;20296;-68
2023/08/03 01:46:22;;;;;;;;;;;;;;;;;;5004075;28;19933;-65
2023/08/03 01:48:48;;;;;;;;;;;;;;;;;;5004265;28;19933;-67
2023/08/03 01:51:14;;;;;;;;;;;;;;;;;;5003451;28;19925;-69
2023/08/03 01:53:40;;;;;;;;;;;;;;;;;;5004356;28;20406;-68
2023/08/03 01:56:06;;;;;;;;;;;;;;;;;;5002531;28;19925;-68
2023/08/03 01:58:32;;;;;;;;;;;;;;;;;;5003818;28;19929;-68
2023/08/03 02:00:58;;;;;;;;;;;;;;;;;;5003966;28;19921;-70
2023/08/03 02:03:24;;;;;;;;;;;;;;;;;;5003315;28;19925;-71
2023/08/03 02:05:50;;;;;;;;;;;;;;;;;;5004004;28;19929;-69
2023/08/03 02:08:16;;;;;;;;;;;;;;;;;;4998971;28;20410;-69
2023/08/03 02:10:41;;;;;;;;;;;;;;;;;;5002869;28;19925;-69
2023/08/03 02:13:07;;;;;;;;;;;;;;;;;;5003433;28;19928;-68
2023/08/03 02:15:33;;;;;;;;;;;;;;;;;;5003636;28;20342;-68
2023/08/03 02:17:59;;;;;;;;;;;;;;;;;;5004135;28;19926;-69
2023/08/03 02:20:25;;;;;;;;;;;;;;;;;;5003542;28;19925;-69
2023/08/03 02:22:51;;;;;;;;;;;;;;;;;;5003420;28;19932;-68
2023/08/03 02:25:23;;;;;;;;;;;;;;;;;;5003320;28;19932;-68
2023/08/03 02:27:49;;;;;;;;;;;;;;;;;;5004186;28;20298;-68
2023/08/03 02:30:15;;;;;;;;;;;;;;;;;;5003160;28;19925;-68
2023/08/03 02:32:40;;;;;;;;;;;;;;;;;;5003389;28;19932;-65
2023/08/03 02:35:06;;;;;;;;;;;;;;;;;;5003224;28;19933;-65
2023/08/03 02:37:32;;;;;;;;;;;;;;;;;;5003088;28;19930;-65
2023/08/03 02:39:58;;;;;;;;;;;;;;;;;;5001814;28;20562;-66
2023/08/03 02:42:24;;;;;;;;;;;;;;;;;;5002969;28;19929;-66
2023/08/03 02:44:50;;;;;;;;;;;;;;;;;;5003203;28;19971;-66
2023/08/03 02:47:16;;;;;;;;;;;;;;;;;;5002875;28;19925;-66
2023/08/03 02:49:42;;;;;;;;;;;;;;;;;;5002781;28;19933;-65
2023/08/03 02:52:08;;;;;;;;;;;;;;;;;;5003345;28;19950;-66
2023/08/03 02:54:34;;;;;;;;;;;;;;;;;;5002263;28;19925;-66
2023/08/03 02:57:00;;;;;;;;;;;;;;;;;;5002885;28;20008;-66
2023/08/03 02:59:26;;;;;;;;;;;;;;;;;;5003279;28;20024;-66
2023/08/03 03:01:51;;;;;;;;;;;;;;;;;;5003396;28;19961;-66
2023/08/03 03:04:17;;;;;;;;;;;;;;;;;;5003200;28;19925;-66
2023/08/03 03:06:43;;;;;;;;;;;;;;;;;;5002906;28;19930;-66
2023/08/03 03:09:10;;;;;;;;;;;;;;;;;;4984641;28;19987;-66
2023/08/03 03:11:35;;;;;;;;;;;;;;;;;;5001742;28;19926;-66
2023/08/03 03:14:01;;;;;;;;;;;;;;;;;;5003137;28;19926;-67
2023/08/03 03:16:27;;;;;;;;;;;;;;;;;;5003623;28;19933;-66
2023/08/03 03:18:53;;;;;;;;;;;;;;;;;;4984846;28;19925;-66
2023/08/03 03:21:20;;;;;;;;;;;;;;;;;;4995703;28;19950;-65
2023/08/03 03:23:46;;;;;;;;;;;;;;;;;;4997377;28;19926;-65
2023/08/03 03:26:12;;;;;;;;;;;;;;;;;;5001225;28;20068;-66
2023/08/03 03:28:38;;;;;;;;;;;;;;;;;;5002198;28;20297;-66
2023/08/03 03:31:04;;;;;;;;;;;;;;;;;;5002877;28;20383;-66
2023/08/03 03:33:29;;;;;;;;;;;;;;;;;;5003080;28;19930;-67
2023/08/03 03:35:55;;;;;;;;;;;;;;;;;;5005695;28;20016;-65
2023/08/03 03:38:21;;;;;;;;;;;;;;;;;;5006552;28;19932;-65
2023/08/03 03:40:47;;;;;;;;;;;;;;;;;;5004987;28;19976;-65
2023/08/03 03:43:13;;;;;;;;;;;;;;;;;;5005662;28;20551;-64
2023/08/03 03:45:39;;;;;;;;;;;;;;;;;;5006456;28;19929;-65
2023/08/03 03:48:05;;;;;;;;;;;;;;;;;;5005925;28;19972;-65
2023/08/03 03:50:31;;;;;;;;;;;;;;;;;;5003250;28;20513;-66
2023/08/03 03:52:57;;;;;;;;;;;;;;;;;;5005982;28;20578;-66
2023/08/03 03:55:23;;;;;;;;;;;;;;;;;;5005970;28;19980;-66
2023/08/03 03:57:49;;;;;;;;;;;;;;;;;;5006072;28;19991;-65
2023/08/03 04:00:15;;;;;;;;;;;;;;;;;;5006077;28;19972;-65
2023/08/03 04:02:40;;;;;;;;;;;;;;;;;;5005746;28;19932;-65
2023/08/03 04:05:06;;;;;;;;;;;;;;;;;;5006470;28;20260;-66
2023/08/03 04:07:32;;;;;;;;;;;;;;;;;;5005605;28;20660;-65
2023/08/03 04:09:58;;;;;;;;;;;;;;;;;;5005222;28;19940;-66
2023/08/03 04:12:24;;;;;;;;;;;;;;;;;;5005209;28;19926;-66
2023/08/03 04:14:50;;;;;;;;;;;;;;;;;;5005898;28;19926;-66
2023/08/03 04:17:16;;;;;;;;;;;;;;;;;;5006049;28;19926;-66
2023/08/03 04:19:42;;;;;;;;;;;;;;;;;;5006350;28;19980;-66
2023/08/03 04:22:08;;;;;;;;;;;;;;;;;;4987872;28;19948;-66
2023/08/03 04:24:34;;;;;;;;;;;;;;;;;;5004624;28;20279;-66
2023/08/03 04:27:00;;;;;;;;;;;;;;;;;;5004897;28;19933;-66
2023/08/03 04:29:25;;;;;;;;;;;;;;;;;;5005615;28;19925;-65
2023/08/03 04:31:51;;;;;;;;;;;;;;;;;;5005692;28;20369;-66
2023/08/03 04:34:17;;;;;;;;;;;;;;;;;;4997862;28;20399;-65
2023/08/03 04:36:46;;;;;;;;;;;;;;;;;;5000159;28;19929;-65
2023/08/03 04:39:12;;;;;;;;;;;;;;;;;;5004410;28;19933;-65
2023/08/03 04:41:38;;;;;;;;;;;;;;;;;;5004190;28;19929;-65
2023/08/03 04:44:04;;;;;;;;;;;;;;;;;;5005743;28;19925;-65
2023/08/03 04:46:30;;;;;;;;;;;;;;;;;;5004975;28;19926;-65
2023/08/03 04:48:56;;;;;;;;;;;;;;;;;;5005071;28;19933;-66
2023/08/03 04:51:22;;;;;;;;;;;;;;;;;;5004779;28;20471;-65
2023/08/03 04:53:47;;;;;;;;;;;;;;;;;;5004192;28;20350;-65
2023/08/03 04:56:13;;;;;;;;;;;;;;;;;;4986017;28;19929;-65
2023/08/03 04:58:39;;;;;;;;;;;;;;;;;;4987483;28;19935;-65
2023/08/03 05:01:05;;;;;;;;;;;;;;;;;;5005452;28;19925;-65
2023/08/03 05:03:31;;;;;;;;;;;;;;;;;;5004421;28;20039;-67
2023/08/03 05:05:57;;;;;;;;;;;;;;;;;;5004550;28;19925;-66
2023/08/03 05:08:24;;;;;;;;;;;;;;;;;;5004647;28;20008;-66
2023/08/03 05:10:50;;;;;;;;;;;;;;;;;;5003816;28;19929;-65
2023/08/03 05:13:17;;;;;;;;;;;;;;;;;;5004389;28;19929;-67
2023/08/03 05:15:43;;;;;;;;;;;;;;;;;;5004574;28;20238;-65
2023/08/03 05:18:09;;;;;;;;;;;;;;;;;;5004814;28;19926;-65
2023/08/03 05:20:35;;;;;;;;;;;;;;;;;;5004181;28;19932;-64
2023/08/03 05:23:01;;;;;;;;;;;;;;;;;;5004733;28;20342;-64
2023/08/03 05:25:27;;;;;;;;;;;;;;;;;;5003429;28;20376;-64
2023/08/03 05:27:53;;;;;;;;;;;;;;;;;;5004146;28;19929;-62
2023/08/03 05:30:19;;;;;;;;;;;;;;;;;;5004764;28;19967;-64
2023/08/03 05:32:44;;;;;;;;;;;;;;;;;;5004426;28;19929;-64
2023/08/03 05:35:10;;;;;;;;;;;;;;;;;;5004115;28;19987;-65
2023/08/03 05:37:36;;;;;;;;;;;;;;;;;;5003768;28;20653;-65
2023/08/03 05:40:02;;;;;;;;;;;;;;;;;;5004170;28;19926;-65
2023/08/03 05:42:28;;;;;;;;;;;;;;;;;;5003546;28;19926;-65
2023/08/03 05:44:54;;;;;;;;;;;;;;;;;;5003978;28;20414;-65
2023/08/03 05:47:20;;;;;;;;;;;;;;;;;;4997076;28;20499;-65
2023/08/03 05:49:46;;;;;;;;;;;;;;;;;;4999215;28;20017;-66
2023/08/03 05:52:12;;;;;;;;;;;;;;;;;;5003846;28;20071;-66
2023/08/03 05:54:38;;;;;;;;;;;;;;;;;;5003541;28;19986;-67
2023/08/03 05:57:04;;;;;;;;;;;;;;;;;;5002976;28;19932;-67
2023/08/03 05:59:30;;;;;;;;;;;;;;;;;;5003857;28;19930;-67
2023/08/03 06:01:56;;;;;;;;;;;;;;;;;;5002964;28;19925;-67
2023/08/03 06:04:22;;;;;;;;;;;;;;;;;;5003746;28;20279;-67
2023/08/03 06:06:48;;;;;;;;;;;;;;;;;;5003605;28;20371;-67
2023/08/03 06:09:13;;;;;;;;;;;;;;;;;;5002808;28;20334;-67
2023/08/03 06:11:39;;;;;;;;;;;;;;;;;;4992884;28;20008;-67
2023/08/03 06:14:05;;;;;;;;;;;;;;;;;;5003137;28;19988;-67
2023/08/03 06:16:31;;;;;;;;;;;;;;;;;;4999942;28;19940;-68
2023/08/03 06:19:00;;;;;;;;;;;;;;;;;;4997651;28;20493;-67
2023/08/03 06:21:26;;;;;;;;;;;;;;;;;;5003858;28;20667;-67
2023/08/03 06:23:52;;;;;;;;;;;;;;;;;;5002845;28;20024;-66
2023/08/03 06:26:18;;;;;;;;;;;;;;;;;;5003264;28;19926;-64
2023/08/03 06:28:44;;;;;;;;;;;;;;;;;;4985120;28;19926;-66
2023/08/03 06:31:10;;;;;;;;;;;;;;;;;;5003521;28;19944;-67
2023/08/03 06:33:36;;;;;;;;;;;;;;;;;;5002797;28;20034;-68
2023/08/03 06:36:02;;;;;;;;;;;;;;;;;;5002883;28;20509;-66
2023/08/03 06:38:28;;;;;;;;;;;;;;;;;;5002542;28;20035;-67
2023/08/03 06:40:54;;;;;;;;;;;;;;;;;;5002972;28;20014;-67
2023/08/03 06:43:20;;;;;;;;;;;;;;;;;;5002546;28;20040;-67
2023/08/03 06:45:46;;;;;;;;;;;;;;;;;;5003359;28;19980;-68
2023/08/03 06:48:11;;;;;;;;;;;;;;;;;;5002510;28;19926;-68
2023/08/03 06:50:38;;;;;;;;;;;;;;;;;;5002635;28;20331;-69
2023/08/03 06:53:04;;;;;;;;;;;;;;;;;;5003706;28;19931;-70
2023/08/03 06:55:30;;;;;;;;;;;;;;;;;;5002367;28;19929;-68
2023/08/03 06:57:56;;;;;;;;;;;;;;;;;;5002000;28;20009;-68
2023/08/03 07:00:23;;;;;;;;;;;;;;;;;;5003966;28;19933;-69
2023/08/03 07:02:49;;;;;;;;;;;;;;;;;;5003412;28;19932;-68
2023/08/03 07:05:15;;;;;;;;;;;;;;;;;;5002915;28;19933;-69
2023/08/03 07:07:41;;;;;;;;;;;;;;;;;;5003306;28;19971;-68
2023/08/03 07:10:07;;;;;;;;;;;;;;;;;;5005303;28;19925;-67
2023/08/03 07:12:33;;;;;;;;;;;;;;;;;;5006404;28;19933;-67
2023/08/03 07:14:59;;;;;;;;;;;;;;;;;;5005143;28;19952;-69
2023/08/03 07:17:24;;;;;;;;;;;;;;;;;;5005505;28;19929;-70
2023/08/03 07:19:51;;;;;;;;;;;;;;;;;;5001288;28;20017;-68
2023/08/03 07:22:17;;;;;;;;;;;;;;;;;;4997039;28;19932;-67
2023/08/03 07:24:43;;;;;;;;;;;;;;;;;;5004914;28;19929;-67
2023/08/03 07:27:09;;;;;;;;;;;;;;;;;;5005085;28;20017;-68
2023/08/03 07:29:35;;;;;;;;;;;;;;;;;;5005316;28;20419;-68
2023/08/03 07:32:01;;;;;;;;;;;;;;;;;;5006172;28;19926;-68
2023/08/03 07:34:27;;;;;;;;;;;;;;;;;;5006985;28;19925;-69
2023/08/03 07:36:53;;;;;;;;;;;;;;;;;;5006585;28;19976;-64
2023/08/03 07:39:18;;;;;;;;;;;;;;;;;;5006092;28;19930;-69
2023/08/03 07:41:44;;;;;;;;;;;;;;;;;;5007405;28;19926;-69
2023/08/03 07:44:10;;;;;;;;;;;;;;;;;;5006420;28;20437;-70
2023/08/03 07:46:36;;;;;;;;;;;;;;;;;;5006066;28;19925;-69
2023/08/03 07:49:02;;;;;;;;;;;;;;;;;;5005800;28;20023;-67
2023/08/03 07:51:28;;;;;;;;;;;;;;;;;;5005913;28;19921;-67
2023/08/03 07:53:54;;;;;;;;;;;;;;;;;;5005084;28;19933;-68
2023/08/03 07:56:20;;;;;;;;;;;;;;;;;;5006877;28;19929;-67
2023/08/03 07:58:46;;;;;;;;;;;;;;;;;;4987720;28;19926;-67
2023/08/03 08:01:12;;;;;;;;;;;;;;;;;;5005872;28;20009;-67
2023/08/03 08:03:38;;;;;;;;;;;;;;;;;;5005144;28;19926;-68
2023/08/03 08:06:04;;;;;;;;;;;;;;;;;;5006238;28;20015;-68
2023/08/03 08:08:29;;;;;;;;;;;;;;;;;;5004706;28;19952;-68
2023/08/03 08:10:55;;;;;;;;;;;;;;;;;;4988363;28;19951;-67
2023/08/03 08:13:21;;;;;;;;;;;;;;;;;;5005762;28;19926;-68
2023/08/03 08:15:47;;;;;;;;;;;;;;;;;;5005400;28;20393;-68
2023/08/03 08:18:13;;;;;;;;;;;;;;;;;;4987931;28;19930;-67
2023/08/03 08:20:39;;;;;;;;;;;;;;;;;;5005337;28;19921;-68
2023/08/03 08:23:05;;;;;;;;;;;;;;;;;;5005456;28;19925;-67
2023/08/03 08:25:31;;;;;;;;;;;;;;;;;;5004691;28;19929;-68
2023/08/03 08:27:57;;;;;;;;;;;;;;;;;;5005622;28;19928;-67
2023/08/03 08:30:23;;;;;;;;;;;;;;;;;;5005350;28;19929;-62
2023/08/03 08:32:49;;;;;;;;;;;;;;;;;;5005612;28;19929;-68
2023/08/03 08:35:15;;;;;;;;;;;;;;;;;;4987698;28;19925;-68
2023/08/03 08:37:40;;;;;;;;;;;;;;;;;;5005790;28;20371;-68
2023/08/03 08:40:06;;;;;;;;;;;;;;;;;;5004559;28;19926;-68
2023/08/03 08:42:32;;;;;;;;;;;;;;;;;;5005470;28;19933;-67
2023/08/03 08:44:58;;;;;;;;;;;;;;;;;;5004101;28;19925;-68
2023/08/03 08:47:24;;;;;;;;;;;;;;;;;;5004835;28;19926;-68
2023/08/03 08:49:50;;;;;;;;;;;;;;;;;;5005478;28;19925;-68
2023/08/03 08:52:16;;;;;;;;;;;;;;;;;;5005344;28;20020;-68
2023/08/03 08:54:42;;;;;;;;;;;;;;;;;;5004315;28;20048;-67
2023/08/03 08:57:09;;;;;;;;;;;;;;;;;;5005137;28;20012;-68
2023/08/03 08:59:35;;;;;;;;;;;;;;;;;;5004417;28;19925;-68
2023/08/03 09:02:02;;;;;;;;;;;;;;;;;;5004771;28;20461;-68
2023/08/03 09:04:28;;;;;;;;;;;;;;;;;;5005045;28;20352;-67
2023/08/03 09:06:54;;;;;;;;;;;;;;;;;;5004690;28;19931;-67
2023/08/03 09:09:20;;;;;;;;;;;;;;;;;;5004296;28;20091;-68
2023/08/03 09:11:46;;;;;;;;;;;;;;;;;;4987431;28;20338;-68
2023/08/03 09:14:14;;;;;;;;;;;;;;;;;;5003408;28;20375;-68
2023/08/03 09:16:40;;;;;;;;;;;;;;;;;;5005015;28;20101;-68
2023/08/03 09:19:06;;;;;;;;;;;;;;;;;;5004258;28;20291;-68
2023/08/03 09:21:32;;;;;;;;;;;;;;;;;;5004710;28;19988;-68
2023/08/03 09:23:59;;;;;;;;;;;;;;;;;;5002958;28;19926;-69
2023/08/03 09:26:25;;;;;;;;;;;;;;;;;;5004264;28;19979;-68
2023/08/03 09:28:51;;;;;;;;;;;;;;;;;;5004198;28;19933;-68
2023/08/03 09:31:17;;;;;;;;;;;;;;;;;;5004398;28;19931;-68
2023/08/03 09:33:43;;;;;;;;;;;;;;;;;;4985394;28;19936;-68
2023/08/03 09:36:10;;;;;;;;;;;;;;;;;;5004514;28;19929;-69
2023/08/03 09:38:36;;;;;;;;;;;;;;;;;;5003672;28;19980;-67
2023/08/03 09:41:02;;;;;;;;;;;;;;;;;;5004278;28;20004;-67
2023/08/03 09:43:28;;;;;;;;;;;;;;;;;;5003200;28;19948;-68
2023/08/03 09:45:54;;;;;;;;;;;;;;;;;;5004389;28;19926;-67
2023/08/03 09:48:20;;;;;;;;;;;;;;;;;;5004234;28;19932;-68
2023/08/03 09:50:46;;;;;;;;;;;;;;;;;;5003813;28;19952;-67
2023/08/03 09:53:12;;;;;;;;;;;;;;;;;;4985419;28;20390;-65
2023/08/03 09:55:39;;;;;;;;;;;;;;;;;;4996358;28;19926;-67
2023/08/03 09:58:05;;;;;;;;;;;;;;;;;;4980304;28;19933;-66
2023/08/03 10:00:30;;;;;;;;;;;;;;;;;;4997187;28;19988;-67
2023/08/03 10:02:56;;;;;;;;;;;;;;;;;;4998470;28;20364;-66
2023/08/03 10:05:22;;;;;;;;;;;;;;;;;;4995899;28;20083;-68
2023/08/03 10:07:48;;;;;;;;;;;;;;;;;;5004913;28;20338;-68
2023/08/03 10:10:14;;;;;;;;;;;;;;;;;;4985974;28;20434;-67
2023/08/03 10:12:40;;;;;;;;;;;;;;;;;;5003473;28;20016;-67
2023/08/03 10:15:06;;;;;;;;;;;;;;;;;;5003891;28;19961;-66
2023/08/03 10:17:32;;;;;;;;;;;;;;;;;;5004249;28;19968;-67
2023/08/03 10:20:00;;;;;;;;;;;;;;;;;;5004128;28;19936;-67
2023/08/03 10:22:26;;;;;;;;;;;;;;;;;;5003843;28;20028;-67
2023/08/03 10:24:52;;;;;;;;;;;;;;;;;;5003052;28;20089;-67
2023/08/03 10:27:18;;;;;;;;;;;;;;;;;;4969421;28;20004;-67
2023/08/03 10:29:44;;;;;;;;;;;;;;;;;;5002663;28;19933;-67
2023/08/03 10:32:10;;;;;;;;;;;;;;;;;;5002951;28;19926;-67
2023/08/03 10:34:39;;;;;;;;;;;;;;;;;;5003713;28;19933;-66
2023/08/03 10:37:05;;;;;;;;;;;;;;;;;;5003114;28;20085;-67
2023/08/03 10:39:31;;;;;;;;;;;;;;;;;;5002892;28;20414;-68
2023/08/03 10:41:56;;;;;;;;;;;;;;;;;;5003039;28;19925;-67
2023/08/03 10:44:22;;;;;;;;;;;;;;;;;;5002259;28;20379;-66
2023/08/03 10:46:48;;;;;;;;;;;;;;;;;;4988068;28;19921;-68
2023/08/03 10:49:14;;;;;;;;;;;;;;;;;;5002253;28;19947;-66
2023/08/03 10:51:40;;;;;;;;;;;;;;;;;;5002779;28;20024;-67
2023/08/03 10:54:06;;;;;;;;;;;;;;;;;;5002368;28;19921;-66
2023/08/03 10:56:32;;;;;;;;;;;;;;;;;;5002679;28;19925;-67
2023/08/03 10:58:58;;;;;;;;;;;;;;;;;;5002530;28;19926;-66
2023/08/03 11:01:24;;;;;;;;;;;;;;;;;;5002815;28;20016;-67
2023/08/03 11:03:50;;;;;;;;;;;;;;;;;;5003143;28;20414;-67
2023/08/03 11:06:16;;;;;;;;;;;;;;;;;;4983848;28;19926;-67
2023/08/03 11:08:42;;;;;;;;;;;;;;;;;;4992959;28;19925;-66
2023/08/03 11:11:08;;;;;;;;;;;;;;;;;;5002694;28;19936;-67
2023/08/03 11:13:34;;;;;;;;;;;;;;;;;;5003036;28;19925;-66
2023/08/03 11:16:00;;;;;;;;;;;;;;;;;;4984695;28;20367;-68
2023/08/03 11:18:26;;;;;;;;;;;;;;;;;;5002798;28;19932;-66
2023/08/03 11:20:52;;;;;;;;;;;;;;;;;;5003656;28;19925;-66
2023/08/03 11:23:18;;;;;;;;;;;;;;;;;;5002103;28;19987;-66
2023/08/03 11:25:43;;;;;;;;;;;;;;;;;;4993673;28;19926;-66
2023/08/03 11:28:11;;;;;;;;;;;;;;;;;;4992302;28;19926;-66
2023/08/03 11:30:37;;;;;;;;;;;;;;;;;;5003050;28;19979;-66
2023/08/03 11:33:02;;;;;;;;;;;;;;;;;;5003060;28;19933;-65
2023/08/03 11:35:28;;;;;;;;;;;;;;;;;;5003254;28;19925;-66
2023/08/03 11:37:54;;;;;;;;;;;;;;;;;;5002646;28;20095;-67
2023/08/03 11:40:20;;;;;;;;;;;;;;;;;;5003091;28;19925;-67
2023/08/03 11:42:46;;;;;;;;;;;;;;;;;;5001537;28;20027;-67
2023/08/03 11:45:12;;;;;;;;;;;;;;;;;;5000798;28;20695;-67
2023/08/03 11:47:38;;;;;;;;;;;;;;;;;;5002364;28;19925;-67
2023/08/03 11:50:04;;;;;;;;;;;;;;;;;;5001213;28;19925;-68
2023/08/03 11:52:30;;;;;;;;;;;;;;;;;;5002434;28;19925;-67
2023/08/03 11:54:56;;;;;;;;;;;;;;;;;;5001877;28;19932;-67
2023/08/03 12:00:07;;;;;;;;;;;;;;;;;;5006551;28;19932;-66
2023/08/03 12:02:33;;;;;;;;;;;;;;;;;;4988655;28;19926;-67
2023/08/03 12:04:58;;;;;;;;;;;;;;;;;;5006334;28;19925;-67
2023/08/03 12:07:24;;;;;;;;;;;;;;;;;;5005309;28;19925;-67
2023/08/03 12:09:50;;;;;;;;;;;;;;;;;;5005457;28;19953;-66
2023/08/03 12:12:16;;;;;;;;;;;;;;;;;;5006016;28;19926;-66
2023/08/03 12:14:42;;;;;;;;;;;;;;;;;;5005759;28;20535;-64
2023/08/03 12:17:08;;;;;;;;;;;;;;;;;;5005874;28;19932;-66
2023/08/03 12:19:34;;;;;;;;;;;;;;;;;;5006424;28;19926;-66
2023/08/03 12:22:01;;;;;;;;;;;;;;;;;;5005608;28;19929;-66
2023/08/03 12:24:27;;;;;;;;;;;;;;;;;;5005010;28;19977;-67
2023/08/03 12:26:52;;;;;;;;;;;;;;;;;;5005629;28;19972;-65
2023/08/03 12:29:19;;;;;;;;;;;;;;;;;;5006710;28;19932;-67
2023/08/03 12:31:45;;;;;;;;;;;;;;;;;;5005305;28;19932;-67
2023/08/03 12:34:11;;;;;;;;;;;;;;;;;;5004472;28;19926;-69
2023/08/03 12:36:37;;;;;;;;;;;;;;;;;;5004197;28;20334;-68
2023/08/03 12:39:05;;;;;;;;;;;;;;;;;;5003215;28;19925;-68
2023/08/03 12:41:31;;;;;;;;;;;;;;;;;;5004150;28;19933;-67
2023/08/03 12:43:57;;;;;;;;;;;;;;;;;;5004417;28;19948;-68
2023/08/03 12:46:23;;;;;;;;;;;;;;;;;;5004653;28;19929;-64
2023/08/03 12:48:50;;;;;;;;;;;;;;;;;;5004616;28;20450;-67
2023/08/03 12:51:17;;;;;;;;;;;;;;;;;;5004838;28;19977;-68
2023/08/03 12:53:46;;;;;;;;;;;;;;;;;;5004671;28;20495;-69
2023/08/03 12:56:12;;;;;;;;;;;;;;;;;;5004706;28;19980;-70
2023/08/03 12:58:38;;;;;;;;;;;;;;;;;;5000065;28;19973;-67
2023/08/03 13:01:03;;;;;;;;;;;;;;;;;;4994142;28;20406;-69
2023/08/03 13:03:29;;;;;;;;;;;;;;;;;;5001615;28;19994;-69
2023/08/03 13:05:55;;;;;;;;;;;;;;;;;;4998847;28;19929;-68
2023/08/03 13:08:21;;;;;;;;;;;;;;;;;;5004481;28;20029;-68
2023/08/03 13:10:47;;;;;;;;;;;;;;;;;;4987041;28;19932;-68
2023/08/03 13:13:17;;;;;;;;;;;;;;;;;;5004892;28;19938;-67
2023/08/03 13:15:43;;;;;;;;;;;;;;;;;;5003922;28;19929;-68
2023/08/03 13:18:08;;;;;;;;;;;;;;;;;;5004391;28;19956;-69
2023/08/03 13:20:34;;;;;;;;;;;;;;;;;;5005128;28;19925;-67
2023/08/03 13:23:00;;;;;;;;;;;;;;;;;;5004403;28;19932;-67
2023/08/03 13:25:26;;;;;;;;;;;;;;;;;;5003629;28;19933;-67
2023/08/03 13:27:52;;;;;;;;;;;;;;;;;;5004833;28;19937;-66
2023/08/03 13:30:20;;;;;;;;;;;;;;;;;;5004335;28;19933;-66
2023/08/03 13:32:45;;;;;;;;;;;;;;;;;;5004115;28;19926;-67
2023/08/03 13:35:11;;;;;;;;;;;;;;;;;;5001397;28;19944;-68
2023/08/03 13:37:37;;;;;;;;;;;;;;;;;;4998431;28;19937;-68
2023/08/03 13:40:03;;;;;;;;;;;;;;;;;;4989641;28;20387;-68
2023/08/03 13:42:29;;;;;;;;;;;;;;;;;;5004070;28;19932;-68
2023/08/03 13:44:55;;;;;;;;;;;;;;;;;;5004375;28;20323;-68
2023/08/03 13:47:21;;;;;;;;;;;;;;;;;;5004573;28;20007;-68
2023/08/03 13:49:47;;;;;;;;;;;;;;;;;;5003699;28;19948;-68
2023/08/03 13:52:13;;;;;;;;;;;;;;;;;;5003432;28;19930;-68
2023/08/03 13:54:39;;;;;;;;;;;;;;;;;;5003763;28;19925;-69
2023/08/03 13:57:05;;;;;;;;;;;;;;;;;;5003849;28;19973;-67
2023/08/03 13:59:31;;;;;;;;;;;;;;;;;;5004402;28;20024;-68
2023/08/03 14:01:57;;;;;;;;;;;;;;;;;;5003999;28;19972;-67
2023/08/03 14:04:23;;;;;;;;;;;;;;;;;;5003929;28;20024;-64
2023/08/03 14:06:49;;;;;;;;;;;;;;;;;;5004519;28;19921;-68
2023/08/03 14:09:17;;;;;;;;;;;;;;;;;;5003972;28;19940;-68
2023/08/03 14:11:43;;;;;;;;;;;;;;;;;;4985764;28;19944;-67
2023/08/03 14:14:10;;;;;;;;;;;;;;;;;;5000789;28;19921;-68
2023/08/03 14:16:36;;;;;;;;;;;;;;;;;;5003752;28;19925;-68
2023/08/03 14:19:02;;;;;;;;;;;;;;;;;;5003377;28;20016;-67
2023/08/03 14:21:28;;;;;;;;;;;;;;;;;;4986312;28;19934;-67
2023/08/03 14:23:54;;;;;;;;;;;;;;;;;;5003146;28;19929;-67
2023/08/03 14:26:20;;;;;;;;;;;;;;;;;;5003695;28;20012;-69
2023/08/03 14:28:46;;;;;;;;;;;;;;;;;;5003468;28;20000;-67
2023/08/03 14:31:12;;;;;;;;;;;;;;;;;;5003877;28;20033;-68
2023/08/03 14:33:38;;;;;;;;;;;;;;;;;;5003444;28;19925;-67
2023/08/03 14:36:05;;;;;;;;;;;;;;;;;;5003838;28;19933;-67
2023/08/03 14:38:31;;;;;;;;;;;;;;;;;;5002219;28;20410;-68
2023/08/03 14:40:57;;;;;;;;;;;;;;;;;;5003785;28;19988;-68
2023/08/03 14:43:23;;;;;;;;;;;;;;;;;;4985883;28;19933;-67
2023/08/03 14:45:49;;;;;;;;;;;;;;;;;;5004364;28;19937;-68
2023/08/03 14:48:15;;;;;;;;;;;;;;;;;;5002958;28;19988;-67
2023/08/03 14:50:41;;;;;;;;;;;;;;;;;;5003043;28;19929;-68
2023/08/03 14:53:06;;;;;;;;;;;;;;;;;;4985570;28;19949;-67
2023/08/03 14:55:32;;;;;;;;;;;;;;;;;;5003570;28;19937;-67
2023/08/03 14:57:58;;;;;;;;;;;;;;;;;;5003155;28;19932;-68
2023/08/03 15:00:24;;;;;;;;;;;;;;;;;;5003452;28;19930;-68
2023/08/03 15:02:50;;;;;;;;;;;;;;;;;;5003191;28;19984;-68
2023/08/03 15:05:16;;;;;;;;;;;;;;;;;;5003361;28;20426;-68
2023/08/03 15:07:42;;;;;;;;;;;;;;;;;;5001929;28;19933;-68
2023/08/03 15:10:08;;;;;;;;;;;;;;;;;;5002894;28;19925;-68
2023/08/03 15:12:34;;;;;;;;;;;;;;;;;;5002229;28;19926;-68
2023/08/03 15:15:00;;;;;;;;;;;;;;;;;;5003622;28;19925;-68
2023/08/03 15:17:26;;;;;;;;;;;;;;;;;;5003977;28;19925;-68
2023/08/03 15:19:52;;;;;;;;;;;;;;;;;;5003227;28;20012;-68
2023/08/03 15:22:18;;;;;;;;;;;;;;;;;;5002791;28;19926;-69
2023/08/03 15:24:43;;;;;;;;;;;;;;;;;;4983415;28;19937;-68
2023/08/03 15:27:09;;;;;;;;;;;;;;;;;;4975796;28;20343;-68
2023/08/03 15:29:35;;;;;;;;;;;;;;;;;;4983749;28;19972;-69
2023/08/03 15:32:01;;;;;;;;;;;;;;;;;;5007274;28;19933;-69
2023/08/03 15:34:27;;;;;;;;;;;;;;;;;;5006835;28;19926;-69
2023/08/03 15:36:53;;;;;;;;;;;;;;;;;;5006573;28;19933;-69
2023/08/03 15:39:19;;;;;;;;;;;;;;;;;;5006454;28;19922;-68
2023/08/03 15:41:45;;;;;;;;;;;;;;;;;;5006810;28;20547;-69
2023/08/03 15:44:11;;;;;;;;;;;;;;;;;;5006971;28;19932;-69
2023/08/03 15:46:37;;;;;;;;;;;;;;;;;;5007244;28;20055;-67
2023/08/03 15:49:02;;;;;;;;;;;;;;;;;;5007234;28;19949;-70
2023/08/03 15:51:28;;;;;;;;;;;;;;;;;;5006753;28;19968;-69
2023/08/03 15:53:54;;;;;;;;;;;;;;;;;;5005466;28;19929;-69
2023/08/03 15:56:20;;;;;;;;;;;;;;;;;;5007024;28;19961;-69
2023/08/03 15:58:46;;;;;;;;;;;;;;;;;;5006942;28;19925;-69
2023/08/03 16:01:13;;;;;;;;;;;;;;;;;;5006340;28;19937;-67
2023/08/03 16:03:39;;;;;;;;;;;;;;;;;;5005801;28;19932;-69
2023/08/03 16:06:05;;;;;;;;;;;;;;;;;;5006476;28;20303;-69
2023/08/03 16:08:31;;;;;;;;;;;;;;;;;;4987564;28;19976;-69
2023/08/03 16:10:57;;;;;;;;;;;;;;;;;;5005840;28;19925;-69
2023/08/03 16:13:23;;;;;;;;;;;;;;;;;;5005388;28;19953;-66
2023/08/03 16:15:49;;;;;;;;;;;;;;;;;;5006151;28;20717;-69
2023/08/03 16:18:16;;;;;;;;;;;;;;;;;;5005789;28;19926;-70
2023/08/03 16:20:42;;;;;;;;;;;;;;;;;;5005891;28;19980;-68
2023/08/03 16:23:08;;;;;;;;;;;;;;;;;;5005587;28;19922;-69
2023/08/03 16:25:34;;;;;;;;;;;;;;;;;;5005779;28;19926;-68
2023/08/03 16:28:00;;;;;;;;;;;;;;;;;;5006154;28;20378;-68
2023/08/03 16:30:26;;;;;;;;;;;;;;;;;;4983055;28;20051;-68
2023/08/03 16:32:52;;;;;;;;;;;;;;;;;;4990972;28;19925;-66
2023/08/03 16:35:18;;;;;;;;;;;;;;;;;;5003577;28;20298;-66
2023/08/03 16:37:43;;;;;;;;;;;;;;;;;;5002839;28;20048;-66
2023/08/03 16:40:09;;;;;;;;;;;;;;;;;;5003069;28;19940;-66